Time;durP1;ratioP1;P1;durP2;ratioP2;P2;SDS_P1;SDS_P2;PMS_P1;PMS_P2;Temp;Humidity;BMP_temperature;BMP_pressure;BME280_temperature;BME280_humidity;BME280_pressure;Samples;Min_cycle;Max_cycle;Signal;HPM_P1;HPM_P2
2022/08/01 00:00:39;;;;;;;8.27;3.75;;;17.60;99.90;;;;;;5071953;28;20537;-61
2022/08/01 00:03:05;;;;;;;7.93;3.45;;;17.40;99.90;;;;;;5071885;28;20040;-61
2022/08/01 00:05:31;;;;;;;7.72;3.45;;;17.50;99.90;;;;;;5071779;28;20041;-60
2022/08/01 00:07:57;;;;;;;7.13;3.33;;;17.40;99.90;;;;;;5071575;28;20098;-61
2022/08/01 00:10:23;;;;;;;5.95;3.08;;;17.50;99.90;;;;;;5071634;28;20048;-61
2022/08/01 00:12:48;;;;;;;8.15;3.70;;;17.40;99.90;;;;;;5071828;28;20041;-61
2022/08/01 00:15:15;;;;;;;7.97;3.33;;;17.60;99.90;;;;;;5071683;28;20045;-61
2022/08/01 00:17:42;;;;;;;6.90;3.22;;;17.50;99.90;;;;;;5071569;28;20492;-61
2022/08/01 00:20:11;;;;;;;7.78;3.88;;;17.50;99.90;;;;;;5062980;28;20057;-61
2022/08/01 00:22:37;;;;;;;7.95;3.88;;;17.40;99.90;;;;;;5053871;28;20032;-61
2022/08/01 00:25:04;;;;;;;7.47;4.00;;;17.60;99.90;;;;;;5055010;28;20052;-60
2022/08/01 00:27:31;;;;;;;7.38;4.10;;;17.70;99.90;;;;;;5055018;28;20044;-60
2022/08/01 00:29:57;;;;;;;10.25;4.28;;;17.70;99.90;;;;;;5055242;28;20466;-60
2022/08/01 00:32:22;;;;;;;8.60;4.35;;;17.60;99.90;;;;;;5055337;28;20116;-61
2022/08/01 00:34:48;;;;;;;8.75;4.82;;;17.70;99.90;;;;;;5055130;28;20076;-61
2022/08/01 00:37:14;;;;;;;9.77;5.47;;;17.50;99.90;;;;;;5071166;28;20041;-61
2022/08/01 00:39:39;;;;;;;10.23;5.20;;;17.60;99.90;;;;;;5074992;28;20488;-61
2022/08/01 00:42:12;;;;;;;9.65;5.40;;;17.60;99.90;;;;;;5075121;28;20467;-61
2022/08/01 00:44:38;;;;;;;11.45;5.13;;;17.60;99.90;;;;;;5075028;28;20111;-61
2022/08/01 00:47:05;;;;;;;8.63;5.53;;;17.70;99.90;;;;;;5074929;28;20043;-61
2022/08/01 00:49:31;;;;;;;11.32;5.40;;;17.70;99.90;;;;;;5074909;28;20043;-61
2022/08/01 00:51:58;;;;;;;10.93;5.65;;;17.70;99.90;;;;;;5074756;28;20392;-61
2022/08/01 00:54:25;;;;;;;11.85;5.43;;;17.70;99.90;;;;;;5073485;28;20443;-61
2022/08/01 00:56:52;;;;;;;10.75;4.72;;;17.60;99.90;;;;;;5073691;28;20378;-61
2022/08/01 00:59:18;;;;;;;13.98;5.43;;;17.70;99.90;;;;;;5073445;28;20091;-60
2022/08/01 01:01:43;;;;;;;10.40;4.63;;;17.60;99.90;;;;;;5074544;28;20086;-61
2022/08/01 01:04:09;;;;;;;9.82;4.10;;;17.60;99.90;;;;;;5074562;28;20044;-61
2022/08/01 01:06:47;;;;;;;8.90;3.92;;;17.80;99.90;;;;;;5074452;28;20037;-61
2022/08/01 01:09:21;;;;;;;7.70;2.90;;;17.70;99.90;;;;;;5074627;28;20037;-61
2022/08/01 01:12:02;;;;;;;6.50;2.47;;;17.70;99.90;;;;;;5074576;28;20444;-61
2022/08/01 01:14:50;;;;;;;6.68;2.38;;;17.60;99.90;;;;;;5074466;28;20072;-61
2022/08/01 01:17:19;;;;;;;8.65;2.42;;;17.50;99.90;;;;;;5074137;28;20040;-61
2022/08/01 01:19:53;;;;;;;10.88;2.42;;;17.40;99.90;;;;;;5068893;28;20521;-62
2022/08/01 01:22:25;;;;;;;9.40;2.70;;;17.60;99.90;;;;;;5054264;28;20041;-62
2022/08/01 01:25:09;;;;;;;9.40;3.25;;;17.40;99.90;;;;;;5054089;28;20068;-61
2022/08/01 01:28:08;;;;;;;7.75;2.35;;;17.40;99.90;;;;;;5054135;28;20044;-60
2022/08/01 01:30:34;;;;;;;6.40;2.17;;;17.50;99.90;;;;;;5054340;28;20068;-61
2022/08/01 01:33:03;;;;;;;8.75;2.95;;;17.40;99.90;;;;;;5053810;28;20069;-61
2022/08/01 01:35:33;;;;;;;8.75;2.58;;;17.40;99.90;;;;;;5053910;28;20057;-61
2022/08/01 01:38:12;;;;;;;12.35;2.70;;;17.40;99.90;;;;;;5060741;28;20048;-61
2022/08/01 01:40:39;;;;;;;9.63;2.60;;;17.40;99.90;;;;;;5074030;28;20049;-61
2022/08/01 01:43:09;;;;;;;10.65;2.70;;;17.30;99.90;;;;;;5074052;28;20037;-61
2022/08/01 01:45:35;;;;;;;8.80;3.20;;;17.30;99.90;;;;;;5072735;28;20036;-61
2022/08/01 01:48:01;;;;;;;9.10;2.90;;;17.30;99.90;;;;;;5073907;28;20040;-61
2022/08/01 01:50:29;;;;;;;8.90;2.70;;;17.30;99.90;;;;;;5073682;28;20040;-61
2022/08/01 01:52:55;;;;;;;5.53;2.25;;;17.20;99.90;;;;;;5073661;28;20400;-61
2022/08/01 01:55:23;;;;;;;7.97;2.40;;;17.20;99.90;;;;;;5072645;28;20055;-61
2022/08/01 01:57:51;;;;;;;9.07;2.05;;;17.20;99.90;;;;;;5073699;28;20577;-61
2022/08/01 02:00:17;;;;;;;9.77;2.47;;;17.20;99.90;;;;;;5072317;28;20082;-61
2022/08/01 02:02:45;;;;;;;8.55;2.10;;;17.30;99.90;;;;;;5073355;28;20033;-61
2022/08/01 02:05:13;;;;;;;10.73;2.90;;;17.20;99.90;;;;;;5073267;28;20461;-61
2022/08/01 02:07:40;;;;;;;10.18;2.70;;;17.10;99.90;;;;;;5073640;28;20068;-61
2022/08/01 02:10:06;;;;;;;15.60;2.95;;;17.10;99.90;;;;;;5073469;28;20064;-60
2022/08/01 02:12:36;;;;;;;15.23;3.45;;;17.20;99.90;;;;;;5073295;28;20481;-61
2022/08/01 02:15:03;;;;;;;13.10;3.80;;;17.20;99.90;;;;;;5073243;28;20044;-61
2022/08/01 02:17:31;;;;;;;12.18;3.65;;;17.20;99.90;;;;;;5073211;28;20071;-61
2022/08/01 02:19:57;;;;;;;11.05;3.40;;;17.10;99.90;;;;;;5066421;28;20038;-61
2022/08/01 02:22:32;;;;;;;18.33;4.18;;;17.10;99.90;;;;;;5053309;28;20056;-61
2022/08/01 02:25:03;;;;;;;15.25;4.13;;;17.00;99.90;;;;;;5053179;28;20110;-61
2022/08/01 02:27:34;;;;;;;17.90;5.07;;;17.00;99.90;;;;;;5053128;28;20054;-61
2022/08/01 02:30:04;;;;;;;13.75;4.70;;;17.10;99.90;;;;;;5053088;28;20063;-61
2022/08/01 02:32:54;;;;;;;15.60;3.90;;;17.10;99.90;;;;;;5053262;28;20040;-61
2022/08/01 02:35:28;;;;;;;16.95;4.80;;;17.10;99.90;;;;;;5052659;28;20056;-60
2022/08/01 02:37:56;;;;;;;10.75;4.93;;;17.00;99.90;;;;;;5068379;28;20045;-60
2022/08/01 02:40:23;;;;;;;11.73;4.78;;;17.00;99.90;;;;;;5052923;28;20091;-61
2022/08/01 02:42:50;;;;;;;15.27;4.50;;;17.10;99.90;;;;;;5052875;28;20394;-60
2022/08/01 02:45:20;;;;;;;13.57;4.22;;;17.10;99.90;;;;;;5052138;28;20079;-61
2022/08/01 02:47:47;;;;;;;12.52;4.30;;;17.10;99.90;;;;;;5052872;28;20124;-61
2022/08/01 02:50:13;;;;;;;17.23;5.32;;;17.10;99.90;;;;;;5052766;28;20045;-61
2022/08/01 02:52:41;;;;;;;13.07;4.15;;;17.10;99.90;;;;;;5052715;28;20041;-61
2022/08/01 02:55:08;;;;;;;14.10;5.13;;;17.10;99.90;;;;;;5052405;28;20091;-61
2022/08/01 02:57:37;;;;;;;12.23;3.92;;;17.10;99.90;;;;;;5052588;28;20076;-61
2022/08/01 03:00:04;;;;;;;11.77;4.60;;;17.10;99.90;;;;;;5052613;28;20037;-61
2022/08/01 03:02:30;;;;;;;13.95;4.90;;;17.10;99.90;;;;;;5052561;28;20059;-61
2022/08/01 03:04:57;;;;;;;17.08;5.05;;;17.10;99.90;;;;;;5052509;28;20059;-61
2022/08/01 03:07:23;;;;;;;14.63;3.92;;;17.10;99.90;;;;;;5052379;28;20053;-61
2022/08/01 03:09:50;;;;;;;16.08;4.30;;;17.00;99.90;;;;;;5050959;28;20052;-60
2022/08/01 03:12:22;;;;;;;11.45;3.95;;;17.00;99.90;;;;;;5052481;28;20397;-61
2022/08/01 03:14:51;;;;;;;12.35;4.45;;;17.00;99.90;;;;;;5050999;28;20067;-62
2022/08/01 03:17:20;;;;;;;11.63;4.03;;;17.00;99.90;;;;;;5067670;28;20093;-61
2022/08/01 03:19:46;;;;;;;16.25;5.00;;;17.00;99.90;;;;;;5067659;28;20496;-61
2022/08/01 03:22:14;;;;;;;15.73;4.10;;;16.90;99.90;;;;;;5052082;28;20092;-61
2022/08/01 03:24:42;;;;;;;14.57;4.78;;;17.00;99.90;;;;;;5052438;28;20052;-61
2022/08/01 03:27:09;;;;;;;11.98;3.92;;;16.90;99.90;;;;;;5052229;28;20052;-60
2022/08/01 03:29:37;;;;;;;14.40;4.25;;;16.80;99.90;;;;;;5052176;28;20056;-61
2022/08/01 03:32:03;;;;;;;16.95;4.25;;;16.70;99.90;;;;;;5052089;28;20045;-61
2022/08/01 03:34:30;;;;;;;10.45;3.55;;;16.80;99.90;;;;;;5051852;28;20103;-61
2022/08/01 03:37:04;;;;;;;13.98;4.00;;;16.80;99.90;;;;;;5052250;28;20056;-61
2022/08/01 03:39:34;;;;;;;12.90;3.75;;;16.80;99.90;;;;;;5071463;28;20501;-61
2022/08/01 03:42:07;;;;;;;13.75;3.85;;;16.70;99.90;;;;;;5072040;28;20044;-62
2022/08/01 03:44:38;;;;;;;17.50;4.25;;;16.70;99.90;;;;;;5072066;28;20447;-61
2022/08/01 03:47:06;;;;;;;12.85;3.80;;;16.80;99.90;;;;;;5071950;28;20166;-61
2022/08/01 03:49:35;;;;;;;15.20;4.07;;;16.70;99.90;;;;;;5072195;28;20051;-61
2022/08/01 03:52:04;;;;;;;17.80;3.80;;;16.60;99.90;;;;;;5072172;28;20515;-61
2022/08/01 03:54:33;;;;;;;12.38;3.55;;;16.60;99.90;;;;;;5071898;28;20126;-61
2022/08/01 03:57:00;;;;;;;18.20;3.53;;;16.50;99.90;;;;;;5074974;28;20037;-61
2022/08/01 03:59:27;;;;;;;13.70;3.17;;;16.50;99.90;;;;;;5075867;28;20401;-61
2022/08/01 04:01:53;;;;;;;13.43;3.40;;;16.40;99.90;;;;;;5075707;28;20039;-61
2022/08/01 04:04:19;;;;;;;13.00;3.92;;;16.40;99.90;;;;;;5075972;28;20158;-61
2022/08/01 04:06:45;;;;;;;11.48;3.38;;;16.40;99.90;;;;;;5075760;28;20119;-61
2022/08/01 04:09:11;;;;;;;15.48;3.90;;;16.40;99.90;;;;;;5075730;28;20048;-61
2022/08/01 04:11:39;;;;;;;17.23;3.65;;;16.40;99.90;;;;;;5075776;28;20431;-61
2022/08/01 04:14:05;;;;;;;15.75;2.92;;;16.40;99.90;;;;;;5075638;28;20446;-61
2022/08/01 04:16:30;;;;;;;12.93;3.22;;;16.50;99.90;;;;;;5075489;28;20147;-61
2022/08/01 04:18:56;;;;;;;17.55;3.53;;;16.50;99.90;;;;;;5075627;28;20048;-61
2022/08/01 04:21:28;;;;;;;15.07;4.30;;;16.40;99.90;;;;;;5056705;28;20084;-61
2022/08/01 04:23:59;;;;;;;16.58;3.60;;;16.40;99.90;;;;;;5055450;28;20041;-62
2022/08/01 04:26:25;;;;;;;19.02;3.97;;;16.40;99.90;;;;;;5055449;28;20126;-63
2022/08/01 04:28:54;;;;;;;14.38;3.30;;;16.50;99.90;;;;;;5055177;28;20045;-61
2022/08/01 04:31:22;;;;;;;15.93;3.65;;;16.40;99.90;;;;;;5055101;28;20049;-61
2022/08/01 04:33:51;;;;;;;17.75;3.22;;;16.40;99.90;;;;;;5055198;28;20049;-61
2022/08/01 04:36:22;;;;;;;17.92;3.58;;;16.40;99.90;;;;;;5055080;28;20057;-61
2022/08/01 04:38:54;;;;;;;15.00;3.27;;;16.50;99.90;;;;;;5068701;28;20089;-61
2022/08/01 04:41:23;;;;;;;15.77;3.58;;;16.50;99.90;;;;;;5074819;28;20457;-61
2022/08/01 04:43:51;;;;;;;13.15;4.00;;;16.50;99.90;;;;;;5075109;28;20044;-61
2022/08/01 04:46:18;;;;;;;15.57;3.13;;;16.50;99.90;;;;;;5074949;28;20072;-61
2022/08/01 04:48:45;;;;;;;16.25;4.00;;;16.50;99.90;;;;;;5074721;28;20563;-60
2022/08/01 04:51:17;;;;;;;19.00;4.18;;;16.50;99.90;;;;;;5074806;28;20046;-61
2022/08/01 04:53:45;;;;;;;17.33;3.25;;;16.40;99.90;;;;;;5074736;28;20041;-61
2022/08/01 04:56:12;;;;;;;17.17;3.50;;;16.50;99.90;;;;;;5073744;28;20067;-61
2022/08/01 04:58:42;;;;;;;17.13;3.20;;;16.60;99.90;;;;;;5074737;28;20036;-61
2022/08/01 05:01:09;;;;;;;17.08;3.90;;;16.50;99.90;;;;;;5074700;28;20067;-61
2022/08/01 05:03:34;;;;;;;13.40;3.20;;;16.60;99.90;;;;;;5074715;28;20032;-61
2022/08/01 05:06:00;;;;;;;14.98;3.20;;;16.60;99.90;;;;;;5074702;28;20048;-61
2022/08/01 05:08:26;;;;;;;15.80;3.58;;;16.50;99.90;;;;;;5072517;28;20040;-61
2022/08/01 05:10:52;;;;;;;15.45;3.10;;;16.50;99.90;;;;;;5074676;28;20040;-61
2022/08/01 05:13:18;;;;;;;14.43;3.35;;;16.50;99.90;;;;;;5073432;28;20097;-61
2022/08/01 05:15:44;;;;;;;17.52;4.07;;;16.50;99.90;;;;;;5074413;28;20177;-60
2022/08/01 05:18:10;;;;;;;14.18;3.38;;;16.50;99.90;;;;;;5074389;28;20044;-61
2022/08/01 05:20:36;;;;;;;16.58;4.13;;;16.50;99.90;;;;;;5060605;28;20045;-61
2022/08/01 05:23:05;;;;;;;19.00;3.72;;;16.50;99.90;;;;;;5054417;28;20116;-61
2022/08/01 05:25:31;;;;;;;16.77;3.20;;;16.50;99.90;;;;;;5054630;28;20037;-61
2022/08/01 05:27:56;;;;;;;17.38;3.25;;;16.60;99.90;;;;;;5054662;28;20115;-60
2022/08/01 05:30:22;;;;;;;13.75;3.05;;;16.50;99.90;;;;;;5054453;28;20033;-61
2022/08/01 05:32:48;;;;;;;18.48;3.80;;;16.60;99.90;;;;;;5054269;28;20033;-61
2022/08/01 05:35:13;;;;;;;15.30;3.13;;;16.50;99.90;;;;;;5053954;28;20052;-61
2022/08/01 05:37:39;;;;;;;13.70;3.20;;;16.50;99.90;;;;;;5058179;28;20111;-61
2022/08/01 05:40:05;;;;;;;17.02;3.78;;;16.50;99.90;;;;;;5072817;28;20047;-61
2022/08/01 05:42:31;;;;;;;18.60;4.03;;;16.60;99.90;;;;;;5074131;28;20120;-61
2022/08/01 05:44:56;;;;;;;14.68;3.72;;;16.60;99.90;;;;;;5073993;28;20540;-61
2022/08/01 05:47:22;;;;;;;18.38;3.95;;;16.40;99.90;;;;;;5073928;28;20505;-61
2022/08/01 05:49:48;;;;;;;14.30;3.85;;;16.50;99.90;;;;;;5073771;28;20033;-61
2022/08/01 05:52:13;;;;;;;16.50;3.70;;;16.50;99.90;;;;;;5073720;28;20048;-61
2022/08/01 05:54:40;;;;;;;15.85;3.65;;;16.50;99.90;;;;;;5073948;28;20127;-62
2022/08/01 05:57:06;;;;;;;11.98;3.35;;;16.50;99.90;;;;;;5073773;28;20044;-60
2022/08/01 05:59:31;;;;;;;15.52;3.13;;;16.60;99.90;;;;;;5073640;28;20084;-62
2022/08/01 06:01:57;;;;;;;12.13;3.15;;;16.60;99.90;;;;;;5072202;28;20080;-62
2022/08/01 06:04:23;;;;;;;17.90;3.92;;;16.60;99.90;;;;;;5073502;28;20123;-61
2022/08/01 06:06:48;;;;;;;16.38;3.10;;;16.70;99.90;;;;;;5073346;28;20040;-61
2022/08/01 06:09:14;;;;;;;15.40;3.63;;;16.60;99.90;;;;;;5073408;28;20038;-61
2022/08/01 06:11:40;;;;;;;17.10;3.63;;;16.70;99.90;;;;;;5073562;28;20044;-61
2022/08/01 06:14:06;;;;;;;17.08;3.28;;;16.70;99.90;;;;;;5072854;28;20370;-61
2022/08/01 06:16:32;;;;;;;13.77;3.20;;;16.70;99.90;;;;;;5072488;28;20041;-61
2022/08/01 06:18:57;;;;;;;14.05;3.20;;;16.60;99.90;;;;;;5071595;28;20032;-61
2022/08/01 06:21:23;;;;;;;15.95;3.33;;;16.70;99.90;;;;;;5051837;28;20515;-61
2022/08/01 06:23:48;;;;;;;16.35;3.03;;;16.70;99.90;;;;;;5051038;28;20047;-61
2022/08/01 06:26:18;;;;;;;14.80;3.53;;;16.70;99.90;;;;;;5052435;28;20412;-61
2022/08/01 06:28:43;;;;;;;18.27;3.40;;;16.80;99.90;;;;;;5052428;28;20037;-62
2022/08/01 06:31:11;;;;;;;12.07;2.95;;;16.70;99.90;;;;;;5052360;28;20048;-61
2022/08/01 06:33:36;;;;;;;18.27;3.28;;;16.80;99.90;;;;;;5052158;28;20056;-61
2022/08/01 06:36:03;;;;;;;16.20;3.58;;;16.80;99.90;;;;;;5067514;28;20083;-61
2022/08/01 06:38:28;;;;;;;18.05;2.88;;;16.80;99.90;;;;;;5063245;28;20068;-62
2022/08/01 06:40:54;;;;;;;15.52;2.92;;;16.90;99.90;;;;;;5071718;28;20072;-62
2022/08/01 06:43:21;;;;;;;12.43;2.40;;;16.90;99.90;;;;;;5053761;28;20075;-61
2022/08/01 06:45:47;;;;;;;13.13;2.65;;;17.00;99.90;;;;;;5071795;28;20068;-63
2022/08/01 06:48:12;;;;;;;15.30;2.42;;;16.90;99.90;;;;;;5071547;28;20395;-62
2022/08/01 06:50:38;;;;;;;16.67;2.47;;;16.90;99.90;;;;;;5071806;28;20052;-62
2022/08/01 06:53:04;;;;;;;17.27;3.05;;;17.00;99.90;;;;;;5071844;28;20071;-62
2022/08/01 06:55:30;;;;;;;11.73;2.50;;;17.00;99.90;;;;;;5071525;28;20131;-62
2022/08/01 06:57:56;;;;;;;15.77;2.65;;;17.00;99.90;;;;;;5071789;28;20045;-62
2022/08/01 07:00:23;;;;;;;13.80;2.97;;;17.00;99.90;;;;;;5069737;28;20033;-62
2022/08/01 07:02:54;;;;;;;13.35;3.00;;;17.00;99.90;;;;;;5071173;28;20044;-61
2022/08/01 07:05:21;;;;;;;12.05;2.38;;;17.00;99.90;;;;;;5071492;28;20174;-61
2022/08/01 07:07:47;;;;;;;12.75;2.60;;;17.20;99.90;;;;;;5071883;28;20118;-63
2022/08/01 07:10:12;;;;;;;12.52;2.53;;;17.30;99.90;;;;;;5071605;28;20738;-62
2022/08/01 07:12:39;;;;;;;15.52;2.67;;;17.40;99.90;;;;;;5071731;28;20055;-61
2022/08/01 07:15:06;;;;;;;12.57;2.30;;;17.60;99.90;;;;;;5071412;28;20041;-62
2022/08/01 07:17:32;;;;;;;9.45;2.13;;;17.60;99.90;;;;;;5071440;28;20037;-62
2022/08/01 07:19:57;;;;;;;11.90;2.60;;;17.70;99.90;;;;;;5064450;28;20068;-62
2022/08/01 07:22:23;;;;;;;13.65;2.28;;;17.80;99.90;;;;;;5051437;28;20134;-62
2022/08/01 07:24:49;;;;;;;11.50;2.03;;;17.80;99.90;;;;;;5051047;28;20079;-61
2022/08/01 07:27:14;;;;;;;11.52;2.28;;;17.60;99.90;;;;;;5051023;28;20110;-62
2022/08/01 07:29:40;;;;;;;14.07;3.08;;;17.80;99.90;;;;;;5051146;28;20040;-62
2022/08/01 07:32:06;;;;;;;11.35;2.10;;;18.00;99.90;;;;;;5050128;28;20546;-62
2022/08/01 07:34:31;;;;;;;11.82;2.10;;;18.00;99.90;;;;;;5050502;28;20067;-61
2022/08/01 07:36:57;;;;;;;13.32;2.15;;;17.90;99.90;;;;;;5050836;28;20063;-61
2022/08/01 07:39:23;;;;;;;14.63;2.10;;;17.90;99.90;;;;;;5069520;28;20505;-62
2022/08/01 07:41:48;;;;;;;11.55;2.28;;;17.90;99.90;;;;;;5071429;28;20408;-61
2022/08/01 07:44:14;;;;;;;16.60;2.22;;;18.00;99.90;;;;;;5071849;28;20074;-61
2022/08/01 07:46:40;;;;;;;11.05;2.30;;;18.00;99.90;;;;;;5070268;28;20036;-62
2022/08/01 07:49:05;;;;;;;11.90;2.33;;;18.10;99.90;;;;;;5071435;28;20362;-61
2022/08/01 07:51:31;;;;;;;14.15;2.20;;;18.20;99.90;;;;;;5071882;28;20048;-61
2022/08/01 07:53:57;;;;;;;12.77;3.47;;;18.10;99.90;;;;;;5072060;28;20123;-62
2022/08/01 07:56:23;;;;;;;9.75;2.13;;;18.20;99.90;;;;;;5071607;28;20573;-62
2022/08/01 07:58:50;;;;;;;10.93;2.00;;;18.30;99.90;;;;;;5071629;28;20041;-62
2022/08/01 08:01:16;;;;;;;11.27;1.98;;;18.30;99.90;;;;;;5071568;28;20049;-62
2022/08/01 08:03:41;;;;;;;12.63;2.20;;;18.30;99.90;;;;;;5071847;28;20369;-61
2022/08/01 08:06:07;;;;;;;11.88;1.95;;;18.50;99.90;;;;;;5071825;28;20037;-61
2022/08/01 08:08:34;;;;;;;12.55;2.38;;;18.50;99.90;;;;;;5071698;28;20419;-61
2022/08/01 08:11:00;;;;;;;10.65;1.90;;;18.60;99.90;;;;;;5071783;28;20093;-61
2022/08/01 08:13:26;;;;;;;11.20;1.98;;;18.70;99.90;;;;;;5071591;28;20040;-62
2022/08/01 08:15:52;;;;;;;14.35;2.15;;;18.70;99.90;;;;;;5071418;28;20048;-60
2022/08/01 08:18:18;;;;;;;11.70;1.95;;;18.90;99.90;;;;;;5071840;28;20053;-61
2022/08/01 08:20:44;;;;;;;10.88;2.55;;;18.90;99.90;;;;;;5058081;28;20045;-61
2022/08/01 08:25:55;;;;;;;15.07;2.10;;;18.90;99.90;;;;;;5040342;28;20041;-61
2022/08/01 08:28:21;;;;;;;10.38;2.25;;;18.70;99.90;;;;;;5051511;28;20182;-61
2022/08/01 08:30:47;;;;;;;14.55;1.88;;;18.40;99.90;;;;;;5051691;28;20186;-61
2022/08/01 08:33:12;;;;;;;8.75;1.83;;;18.30;99.90;;;;;;5051452;28;20064;-61
2022/08/01 08:35:41;;;;;;;10.85;1.90;;;18.50;99.90;;;;;;5051347;28;20067;-61
2022/08/01 08:38:07;;;;;;;11.43;1.80;;;18.30;99.90;;;;;;5059446;28;20044;-61
2022/08/01 08:40:35;;;;;;;11.38;2.75;;;18.20;99.90;;;;;;5071329;28;20036;-62
2022/08/01 08:43:03;;;;;;;13.35;2.15;;;18.20;99.90;;;;;;5072653;28;20511;-62
2022/08/01 08:45:30;;;;;;;9.63;1.70;;;18.10;99.90;;;;;;5075216;28;20075;-61
2022/08/01 08:47:56;;;;;;;12.10;2.45;;;18.20;99.90;;;;;;5074958;28;20037;-61
2022/08/01 08:50:23;;;;;;;10.77;1.80;;;18.20;99.90;;;;;;5060897;28;20073;-62
2022/08/01 08:52:50;;;;;;;11.73;1.90;;;18.30;99.90;;;;;;5049115;28;20045;-61
2022/08/01 08:55:17;;;;;;;5.82;1.25;;;18.40;99.90;;;;;;5054365;28;20073;-61
2022/08/01 08:57:44;;;;;;;9.73;2.08;;;18.40;99.90;;;;;;5054552;28;20076;-62
2022/08/01 09:00:11;;;;;;;9.82;1.90;;;18.70;99.90;;;;;;5054563;28;20040;-61
2022/08/01 09:02:46;;;;;;;9.63;1.75;;;18.60;99.90;;;;;;5054779;28;20049;-61
2022/08/01 09:05:12;;;;;;;10.70;1.60;;;18.60;99.90;;;;;;5054621;28;20037;-61
2022/08/01 09:07:38;;;;;;;11.95;2.40;;;18.70;99.90;;;;;;5054465;28;20520;-61
2022/08/01 09:10:05;;;;;;;8.48;1.63;;;18.80;99.90;;;;;;5054390;28;20440;-61
2022/08/01 09:12:31;;;;;;;11.18;1.73;;;19.00;99.90;;;;;;5053234;28;20405;-61
2022/08/01 09:14:57;;;;;;;11.25;1.80;;;19.00;99.90;;;;;;5054544;28;20044;-61
2022/08/01 09:17:23;;;;;;;9.63;1.80;;;19.00;99.90;;;;;;5054365;28;20053;-61
2022/08/01 09:19:52;;;;;;;11.10;2.03;;;18.90;99.90;;;;;;5048205;28;20065;-62
2022/08/01 09:22:23;;;;;;;9.45;1.83;;;19.00;99.90;;;;;;5034006;28;20037;-61
2022/08/01 09:25:01;;;;;;;8.48;1.70;;;18.90;99.90;;;;;;5033914;28;20414;-62
2022/08/01 09:27:27;;;;;;;9.52;1.58;;;19.00;99.90;;;;;;5032500;28;20052;-62
2022/08/01 09:29:54;;;;;;;10.93;1.90;;;19.10;99.90;;;;;;5033158;28;20112;-62
2022/08/01 09:32:20;;;;;;;8.95;2.13;;;19.30;99.90;;;;;;5033499;28;20486;-62
2022/08/01 09:34:46;;;;;;;10.90;2.30;;;19.50;99.90;;;;;;5033448;28;20383;-61
2022/08/01 09:37:17;;;;;;;13.10;1.83;;;19.50;99.90;;;;;;5034617;28;20052;-61
2022/08/01 09:39:45;;;;;;;8.95;1.90;;;19.40;99.90;;;;;;5073969;28;20051;-61
2022/08/01 09:42:24;;;;;;;7.13;1.63;;;19.50;99.90;;;;;;5073363;28;20535;-62
2022/08/01 09:44:50;;;;;;;7.35;2.10;;;19.20;99.90;;;;;;5073161;28;20392;-61
2022/08/01 09:47:18;;;;;;;12.15;2.10;;;19.30;99.90;;;;;;5046013;28;20041;-61
2022/08/01 09:49:45;;;;;;;9.18;2.03;;;19.20;99.90;;;;;;5044210;28;20021;-60
2022/08/01 09:52:16;;;;;;;10.07;1.50;;;19.30;99.90;;;;;;5043185;28;20497;-62
2022/08/01 09:54:43;;;;;;;7.65;1.55;;;19.00;99.90;;;;;;5042036;28;20120;-62
2022/08/01 09:57:15;;;;;;;8.98;1.40;;;18.90;99.90;;;;;;5043353;28;20033;-61
2022/08/01 09:59:43;;;;;;;;;;;19.00;99.90;;;;;;5044574;28;20520;-62
2022/08/01 10:02:15;;;;;;;7.25;1.40;;;19.40;99.90;;;;;;5042436;28;19921;-61
2022/08/01 10:04:51;;;;;;;11.32;2.33;;;19.50;99.90;;;;;;5042130;28;20180;-61
2022/08/01 10:07:17;;;;;;;10.07;1.90;;;19.70;99.90;;;;;;5040996;28;20401;-61
2022/08/01 10:09:44;;;;;;;8.65;1.80;;;19.50;99.90;;;;;;5043936;28;20025;-61
2022/08/01 10:12:12;;;;;;;9.88;1.45;;;19.80;99.90;;;;;;5042933;28;20554;-62
2022/08/01 10:14:38;;;;;;;12.05;1.95;;;19.60;99.90;;;;;;5041790;28;20056;-61
2022/08/01 10:17:08;;;;;;;9.05;1.63;;;19.80;99.90;;;;;;5044117;28;20033;-62
2022/08/01 10:19:35;;;;;;;8.13;1.60;;;20.00;99.90;;;;;;5042308;28;20389;-61
2022/08/01 10:22:01;;;;;;;7.85;1.73;;;20.00;99.90;;;;;;5043216;28;20126;-61
2022/08/01 10:24:29;;;;;;;6.28;1.25;;;19.80;99.90;;;;;;5040682;28;20044;-61
2022/08/01 10:27:02;;;;;;;8.88;1.20;;;19.60;99.90;;;;;;5041971;28;20090;-61
2022/08/01 10:29:31;;;;;;;7.95;2.13;;;19.80;99.90;;;;;;5041074;28;20393;-61
2022/08/01 10:31:57;;;;;;;11.95;2.22;;;20.00;99.90;;;;;;5033016;28;20079;-62
2022/08/01 10:34:24;;;;;;;6.00;1.30;;;19.50;99.90;;;;;;5032670;28;20057;-61
2022/08/01 10:36:50;;;;;;;9.82;1.83;;;19.50;99.90;;;;;;5032997;28;20049;-61
2022/08/01 10:39:18;;;;;;;9.75;1.90;;;19.80;99.90;;;;;;5066278;28;20119;-62
2022/08/01 10:41:45;;;;;;;9.13;1.90;;;19.90;99.90;;;;;;5071288;28;20119;-61
2022/08/01 10:44:10;;;;;;;10.27;1.50;;;20.00;99.90;;;;;;5072548;28;20543;-61
2022/08/01 10:46:48;;;;;;;8.50;1.60;;;19.40;99.90;;;;;;5072805;28;20072;-61
2022/08/01 10:49:17;;;;;;;10.02;1.85;;;19.70;99.90;;;;;;5072482;28;20124;-61
2022/08/01 10:51:43;;;;;;;6.07;1.45;;;19.90;99.90;;;;;;5071455;28;20044;-62
2022/08/01 10:54:10;;;;;;;8.82;1.52;;;20.00;99.90;;;;;;5072362;28;20076;-61
2022/08/01 10:56:59;;;;;;;8.20;1.50;;;19.50;99.90;;;;;;5072455;28;20571;-59
2022/08/01 10:59:27;;;;;;;7.93;1.90;;;19.80;99.90;;;;;;5072719;28;20079;-61
2022/08/01 11:02:04;;;;;;;7.40;1.63;;;20.00;99.90;;;;;;5072342;28;20048;-61
2022/08/01 11:05:11;;;;;;;7.88;1.63;;;20.10;99.90;;;;;;5072355;28;20044;-61
2022/08/01 11:07:45;;;;;;;9.98;1.63;;;20.10;99.90;;;;;;5065781;28;20404;-60
2022/08/01 11:10:24;;;;;;;10.05;1.98;;;19.90;99.90;;;;;;5042398;28;20038;-60
2022/08/01 11:12:50;;;;;;;8.15;1.65;;;19.90;99.90;;;;;;5042913;28;20039;-60
2022/08/01 11:15:24;;;;;;;10.93;1.48;;;20.10;99.90;;;;;;5040641;28;20044;-60
2022/08/01 11:17:51;;;;;;;9.10;1.40;;;20.10;99.90;;;;;;5043081;28;20052;-61
2022/08/01 11:20:23;;;;;;;8.48;1.50;;;20.10;99.90;;;;;;5042529;28;20500;-60
2022/08/01 11:23:01;;;;;;;9.10;1.25;;;20.10;99.90;;;;;;5047832;28;20079;-60
2022/08/01 11:25:35;;;;;;;12.50;1.60;;;19.90;99.90;;;;;;5042646;28;20130;-60
2022/08/01 11:28:17;;;;;;;7.75;1.30;;;19.70;99.90;;;;;;5043176;28;20106;-60
2022/08/01 11:30:45;;;;;;;6.35;1.40;;;19.60;99.90;;;;;;5056388;28;20048;-61
2022/08/01 11:33:13;;;;;;;5.80;1.38;;;19.50;99.90;;;;;;5041650;28;20041;-61
2022/08/01 11:36:11;;;;;;;6.95;1.33;;;19.70;99.90;;;;;;5041778;28;20053;-60
2022/08/01 11:38:48;;;;;;;9.32;1.75;;;19.70;99.90;;;;;;5042906;28;20100;-60
2022/08/01 11:41:14;;;;;;;6.75;1.30;;;19.60;99.90;;;;;;5045059;28;20116;-60
2022/08/01 11:44:00;;;;;;;8.98;1.50;;;19.70;99.90;;;;;;5050755;28;20180;-60
2022/08/01 11:46:52;;;;;;;7.25;1.27;;;19.90;99.90;;;;;;5051968;28;20071;-60
2022/08/01 11:49:28;;;;;;;9.77;1.52;;;19.60;99.90;;;;;;5052160;28;20044;-61
2022/08/01 11:52:09;;;;;;;7.45;1.50;;;19.90;99.90;;;;;;5051984;28;20041;-60
2022/08/01 11:54:38;;;;;;;10.57;1.55;;;20.30;99.90;;;;;;5051903;28;20041;-60
2022/08/01 11:57:12;;;;;;;7.50;1.05;;;20.20;99.90;;;;;;5051976;28;20040;-60
2022/08/01 11:59:45;;;;;;;6.47;1.67;;;20.40;99.90;;;;;;5051687;28;20100;-60
2022/08/01 12:02:21;;;;;;;8.07;1.60;;;20.60;99.90;;;;;;5051411;28;20106;-60
2022/08/01 12:04:50;;;;;;;5.13;1.13;;;20.50;99.90;;;;;;5051536;28;20037;-61
2022/08/01 12:07:17;;;;;;;9.07;1.60;;;20.60;99.90;;;;;;5051508;28;20049;-60
2022/08/01 12:09:43;;;;;;;8.32;1.33;;;20.60;99.90;;;;;;5051587;28;20085;-60
2022/08/01 12:12:10;;;;;;;6.22;1.15;;;20.80;99.90;;;;;;5051717;28;20073;-62
2022/08/01 12:14:36;;;;;;;8.75;1.58;;;20.70;99.90;;;;;;5051133;28;20041;-60
2022/08/01 12:17:01;;;;;;;5.90;1.25;;;20.50;99.90;;;;;;5052847;28;20099;-60
2022/08/01 12:19:27;;;;;;;7.70;1.27;;;20.60;99.90;;;;;;5052129;28;20047;-60
2022/08/01 12:22:06;;;;;;;8.93;1.48;;;20.70;99.90;;;;;;5034945;28;20041;-61
2022/08/01 12:24:34;;;;;;;5.13;1.20;;;20.90;99.90;;;;;;5035302;28;20080;-60
2022/08/01 12:27:00;;;;;;;7.97;1.20;;;20.80;99.90;;;;;;5035480;28;20120;-60
2022/08/01 12:29:39;;;;;;;8.10;1.60;;;21.00;99.90;;;;;;5035318;28;20112;-61
2022/08/01 12:32:29;;;;;;;9.43;1.40;;;20.70;99.90;;;;;;5035046;28;20474;-60
2022/08/01 12:34:55;;;;;;;7.07;1.40;;;20.40;99.90;;;;;;5035089;28;20064;-61
2022/08/01 12:37:21;;;;;;;7.22;1.25;;;20.50;99.90;;;;;;5038369;28;20061;-60
2022/08/01 12:39:47;;;;;;;7.63;1.75;;;20.70;99.90;;;;;;5073687;28;20048;-60
2022/08/01 12:42:14;;;;;;;6.75;1.67;;;20.80;99.90;;;;;;5074948;28;20052;-61
2022/08/01 12:44:42;;;;;;;7.50;1.42;;;20.70;99.90;;;;;;5074976;28;20037;-60
2022/08/01 12:47:09;;;;;;;10.15;1.30;;;20.30;99.90;;;;;;5074644;28;20479;-61
2022/08/01 12:49:38;;;;;;;8.20;1.60;;;20.50;99.90;;;;;;5073480;28;20051;-60